Time;durP1;ratioP1;P1;durP2;ratioP2;P2;SDS_P1;SDS_P2;PMS_P1;PMS_P2;Temp;Humidity;BMP_temperature;BMP_pressure;BME280_temperature;BME280_humidity;BME280_pressure;Samples;Min_cycle;Max_cycle;Signal;HPM_P1;HPM_P2
2022/07/19 00:02:17;;;;;;;8.20;7.03;;;;;;;;;;5046056;28;20043;-70
2022/07/19 00:04:43;;;;;;;10.80;7.40;;;;;;;;;;5046100;28;20037;-69
2022/07/19 00:07:09;;;;;;;7.53;6.90;;;;;;;;;;5048055;28;20108;-70
2022/07/19 00:09:34;;;;;;;7.93;7.13;;;;;;;;;;5047362;28;20519;-70
2022/07/19 00:12:00;;;;;;;8.98;7.60;;;;;;;;;;5045681;28;20024;-70
2022/07/19 00:14:25;;;;;;;10.52;7.70;;;;;;;;;;5046729;28;20029;-70
2022/07/19 00:16:51;;;;;;;7.95;7.20;;;;;;;;;;5044061;28;20104;-69
2022/07/19 00:19:17;;;;;;;7.80;7.10;;;;;;;;;;5045953;28;20040;-69
2022/07/19 00:21:43;;;;;;;10.73;7.40;;;;;;;;;;5045537;28;20108;-69
2022/07/19 00:24:09;;;;;;;9.93;7.40;;;;;;;;;;5046717;28;20072;-69
2022/07/19 00:26:34;;;;;;;8.20;7.35;;;;;;;;;;5043718;28;20044;-69
2022/07/19 00:29:01;;;;;;;7.90;7.10;;;;;;;;;;5043115;28;20029;-69
2022/07/19 00:31:28;;;;;;;9.35;7.30;;;;;;;;;;5044760;28;20111;-69
2022/07/19 00:33:53;;;;;;;8.70;7.10;;;;;;;;;;5046491;28;20037;-70
2022/07/19 00:36:20;;;;;;;8.40;6.72;;;;;;;;;;5041557;28;20041;-70
2022/07/19 00:38:46;;;;;;;8.60;7.20;;;;;;;;;;5044869;28;20350;-69
2022/07/19 00:41:12;;;;;;;8.23;7.10;;;;;;;;;;5047341;28;20768;-69
2022/07/19 00:43:42;;;;;;;8.80;6.80;;;;;;;;;;5046590;28;20029;-68
2022/07/19 00:46:21;;;;;;;7.57;6.85;;;;;;;;;;5045202;28;20043;-70
2022/07/19 00:48:48;;;;;;;7.90;7.30;;;;;;;;;;5039925;28;20029;-69
2022/07/19 00:51:15;;;;;;;9.00;7.15;;;;;;;;;;5045504;28;20527;-69
2022/07/19 00:53:42;;;;;;;9.23;6.78;;;;;;;;;;5044931;28;20033;-70
2022/07/19 00:56:09;;;;;;;8.10;7.10;;;;;;;;;;5042355;28;20051;-69
2022/07/19 00:58:36;;;;;;;6.88;6.40;;;;;;;;;;5040165;28;20116;-69
2022/07/19 01:01:03;;;;;;;8.75;6.88;;;;;;;;;;5045218;28;20033;-69
2022/07/19 01:03:29;;;;;;;7.85;7.05;;;;;;;;;;5039765;28;20064;-69
2022/07/19 01:05:55;;;;;;;7.57;6.80;;;;;;;;;;5043917;28;20064;-70
2022/07/19 01:08:20;;;;;;;7.80;7.18;;;;;;;;;;5043349;28;20623;-70
2022/07/19 01:10:47;;;;;;;7.75;7.18;;;;;;;;;;5041973;28;20070;-69
2022/07/19 01:13:13;;;;;;;8.40;7.53;;;;;;;;;;5046028;28;20124;-69
2022/07/19 01:15:41;;;;;;;8.95;7.47;;;;;;;;;;5042871;28;20040;-70
2022/07/19 01:18:07;;;;;;;7.63;7.03;;;;;;;;;;5044578;28;20049;-69
2022/07/19 01:20:33;;;;;;;7.90;7.15;;;;;;;;;;5042393;28;20047;-69
2022/07/19 01:23:00;;;;;;;8.38;7.45;;;;;;;;;;5045935;28;20048;-69
2022/07/19 01:25:29;;;;;;;7.65;6.97;;;;;;;;;;5043595;28;20036;-67
2022/07/19 01:27:54;;;;;;;10.98;7.47;;;;;;;;;;5045379;28;20028;-65
2022/07/19 01:30:22;;;;;;;13.43;7.53;;;;;;;;;;5043354;28;20060;-65
2022/07/19 01:32:49;;;;;;;8.25;7.55;;;;;;;;;;5039603;28;20037;-65
2022/07/19 01:35:14;;;;;;;8.07;7.28;;;;;;;;;;5045814;28;20037;-65
2022/07/19 01:37:42;;;;;;;9.48;7.30;;;;;;;;;;5046075;28;20032;-65
2022/07/19 01:40:10;;;;;;;8.10;7.40;;;;;;;;;;5043187;28;20040;-64
2022/07/19 01:42:37;;;;;;;8.07;7.40;;;;;;;;;;5043498;28;20449;-66
2022/07/19 01:45:04;;;;;;;9.68;7.25;;;;;;;;;;5043406;28;20040;-65
2022/07/19 01:47:30;;;;;;;7.88;7.18;;;;;;;;;;5045075;28;20028;-66
2022/07/19 01:49:55;;;;;;;10.00;7.60;;;;;;;;;;5044416;28;20491;-66
2022/07/19 01:52:21;;;;;;;8.23;7.43;;;;;;;;;;5044463;28;20041;-66
2022/07/19 01:54:47;;;;;;;7.97;7.22;;;;;;;;;;5043748;28;20446;-66
2022/07/19 01:57:12;;;;;;;7.97;7.07;;;;;;;;;;5045096;28;20033;-65
2022/07/19 01:59:39;;;;;;;8.55;6.97;;;;;;;;;;5042554;28;20029;-66
2022/07/19 02:02:04;;;;;;;11.18;7.30;;;;;;;;;;5044414;28;20087;-64
2022/07/19 02:04:31;;;;;;;8.82;7.32;;;;;;;;;;5046383;28;20036;-64
2022/07/19 02:06:57;;;;;;;9.23;6.95;;;;;;;;;;5040691;28;20033;-63
2022/07/19 02:09:22;;;;;;;8.48;7.70;;;;;;;;;;5042444;28;20029;-66
2022/07/19 02:11:48;;;;;;;7.80;7.25;;;;;;;;;;5042980;28;20038;-66
2022/07/19 02:14:13;;;;;;;12.00;7.65;;;;;;;;;;5046856;28;20045;-65
2022/07/19 02:16:40;;;;;;;8.73;7.68;;;;;;;;;;5043467;28;20067;-63
2022/07/19 02:19:06;;;;;;;9.02;7.35;;;;;;;;;;5045429;28;20357;-65
2022/07/19 02:21:34;;;;;;;8.27;7.22;;;;;;;;;;5041145;28;20029;-65
2022/07/19 02:23:59;;;;;;;9.07;7.25;;;;;;;;;;5044284;28;20040;-65
2022/07/19 02:26:25;;;;;;;8.63;7.30;;;;;;;;;;5045264;28;20041;-65
2022/07/19 02:28:50;;;;;;;10.65;7.30;;;;;;;;;;5046240;28;20029;-64
2022/07/19 02:31:16;;;;;;;9.52;7.63;;;;;;;;;;5045618;28;20052;-65
2022/07/19 02:33:42;;;;;;;8.05;7.35;;;;;;;;;;5040483;28;20033;-64
2022/07/19 02:36:08;;;;;;;8.10;6.85;;;;;;;;;;5043345;28;20126;-65
2022/07/19 02:38:34;;;;;;;7.93;7.15;;;;;;;;;;5046063;28;20083;-65
2022/07/19 02:40:59;;;;;;;8.05;7.20;;;;;;;;;;5043761;28;20037;-65
2022/07/19 02:43:25;;;;;;;7.70;7.07;;;;;;;;;;5033779;28;20110;-64
2022/07/19 02:45:52;;;;;;;9.25;7.25;;;;;;;;;;5035379;28;20476;-65
2022/07/19 02:48:18;;;;;;;8.00;7.18;;;;;;;;;;5040588;28;20033;-65
2022/07/19 02:50:44;;;;;;;8.20;7.50;;;;;;;;;;5042588;28;20684;-65
2022/07/19 02:53:10;;;;;;;8.25;7.57;;;;;;;;;;5038608;28;20037;-65
2022/07/19 02:55:36;;;;;;;8.60;7.57;;;;;;;;;;5045157;28;20036;-64
2022/07/19 02:58:02;;;;;;;8.48;7.68;;;;;;;;;;5041698;28;20048;-65
2022/07/19 03:00:28;;;;;;;8.93;7.70;;;;;;;;;;5046289;28;20060;-65
2022/07/19 03:02:53;;;;;;;8.18;7.50;;;;;;;;;;5036525;28;20080;-65
2022/07/19 03:05:19;;;;;;;8.30;7.60;;;;;;;;;;5045084;28;20040;-65
2022/07/19 03:07:45;;;;;;;8.88;8.07;;;;;;;;;;5039850;28;20120;-65
2022/07/19 03:10:11;;;;;;;12.38;7.60;;;;;;;;;;5045719;28;20124;-65
2022/07/19 03:12:36;;;;;;;10.70;8.30;;;;;;;;;;5043226;28;20033;-64
2022/07/19 03:15:04;;;;;;;9.30;7.65;;;;;;;;;;5043163;28;20034;-65
2022/07/19 03:17:30;;;;;;;8.60;7.90;;;;;;;;;;5044526;28;20547;-66
2022/07/19 03:19:55;;;;;;;8.65;7.80;;;;;;;;;;5041546;28;20109;-65
2022/07/19 03:22:21;;;;;;;9.73;7.63;;;;;;;;;;5044748;28;20470;-66
2022/07/19 03:24:47;;;;;;;8.35;7.65;;;;;;;;;;5045485;28;20056;-68
2022/07/19 03:27:12;;;;;;;9.68;7.70;;;;;;;;;;5046377;28;20807;-68
2022/07/19 03:29:38;;;;;;;11.65;8.25;;;;;;;;;;5044912;28;20060;-67
2022/07/19 03:32:04;;;;;;;8.80;7.97;;;;;;;;;;5047697;28;20086;-67
2022/07/19 03:34:29;;;;;;;8.43;7.57;;;;;;;;;;5045256;28;20033;-67
2022/07/19 03:36:55;;;;;;;9.15;7.93;;;;;;;;;;5048346;28;20503;-67
2022/07/19 03:39:21;;;;;;;9.52;8.40;;;;;;;;;;5045462;28;20025;-67
2022/07/19 03:41:46;;;;;;;8.30;7.50;;;;;;;;;;5047527;28;20051;-67
2022/07/19 03:44:12;;;;;;;9.60;7.78;;;;;;;;;;5043343;28;20037;-68
2022/07/19 03:46:38;;;;;;;8.73;7.85;;;;;;;;;;5046882;28;20041;-67
2022/07/19 03:49:04;;;;;;;8.48;7.68;;;;;;;;;;5037162;28;20029;-67
2022/07/19 03:51:30;;;;;;;8.55;7.95;;;;;;;;;;5046423;28;20452;-66
2022/07/19 03:53:55;;;;;;;10.00;8.10;;;;;;;;;;5044325;28;20635;-65
2022/07/19 03:56:21;;;;;;;9.23;8.35;;;;;;;;;;5047169;28;20554;-66
2022/07/19 03:58:48;;;;;;;8.68;7.97;;;;;;;;;;5042272;28;20032;-66
2022/07/19 04:01:14;;;;;;;9.30;8.30;;;;;;;;;;5037553;28;20049;-65
2022/07/19 04:03:40;;;;;;;8.90;8.20;;;;;;;;;;5040207;28;20499;-65
2022/07/19 04:06:06;;;;;;;8.77;7.93;;;;;;;;;;5043941;28;20120;-65
2022/07/19 04:08:32;;;;;;;9.15;8.30;;;;;;;;;;5047064;28;20063;-65
2022/07/19 04:10:58;;;;;;;9.23;8.25;;;;;;;;;;5045006;28;20064;-65
2022/07/19 04:13:23;;;;;;;9.45;8.65;;;;;;;;;;5040733;28;20116;-63
2022/07/19 04:15:49;;;;;;;9.65;8.27;;;;;;;;;;5038808;28;20685;-64
2022/07/19 04:18:15;;;;;;;9.73;8.93;;;;;;;;;;5040264;28;20025;-64
2022/07/19 04:20:40;;;;;;;9.23;8.35;;;;;;;;;;5039613;28;20042;-64
2022/07/19 04:23:06;;;;;;;8.93;8.05;;;;;;;;;;5041124;28;20037;-65
2022/07/19 04:25:32;;;;;;;9.20;8.50;;;;;;;;;;5041528;28;20094;-65
2022/07/19 04:27:57;;;;;;;9.10;8.30;;;;;;;;;;5044082;28;20484;-66
2022/07/19 04:30:23;;;;;;;8.82;7.93;;;;;;;;;;5043507;28;20033;-63
2022/07/19 04:32:48;;;;;;;8.55;7.85;;;;;;;;;;5042043;28;20067;-63
2022/07/19 04:35:16;;;;;;;8.57;7.95;;;;;;;;;;5038496;28;20075;-64
2022/07/19 04:37:41;;;;;;;8.73;8.05;;;;;;;;;;5045022;28;20036;-63
2022/07/19 04:40:08;;;;;;;8.75;8.05;;;;;;;;;;5041674;28;20031;-64
2022/07/19 04:42:33;;;;;;;10.50;8.02;;;;;;;;;;5038782;28;20052;-64
2022/07/19 04:44:59;;;;;;;8.32;7.47;;;;;;;;;;5038572;28;20080;-63
2022/07/19 04:47:25;;;;;;;8.57;7.78;;;;;;;;;;5043786;28;20121;-63
2022/07/19 04:49:50;;;;;;;9.18;8.00;;;;;;;;;;5039809;28;20069;-65
2022/07/19 04:52:16;;;;;;;8.75;7.70;;;;;;;;;;5039922;28;20070;-62
2022/07/19 04:54:42;;;;;;;8.80;8.13;;;;;;;;;;5041734;28;20365;-67
2022/07/19 04:57:07;;;;;;;10.35;7.70;;;;;;;;;;5040908;28;20266;-70
2022/07/19 04:59:33;;;;;;;8.88;8.13;;;;;;;;;;5043451;28;20546;-66
2022/07/19 05:01:58;;;;;;;9.20;8.00;;;;;;;;;;5040810;28;20036;-70
2022/07/19 05:04:24;;;;;;;8.48;7.75;;;;;;;;;;5043116;28;20033;-68
2022/07/19 05:06:56;;;;;;;8.68;7.82;;;;;;;;;;5040853;28;20100;-68
2022/07/19 05:09:22;;;;;;;9.07;8.18;;;;;;;;;;5045797;28;20037;-68
2022/07/19 05:11:48;;;;;;;9.30;8.40;;;;;;;;;;5038818;28;20135;-67
2022/07/19 05:14:13;;;;;;;9.05;8.30;;;;;;;;;;5045416;28;20136;-70
2022/07/19 05:16:39;;;;;;;9.40;8.43;;;;;;;;;;5045893;28;20035;-68
2022/07/19 05:19:05;;;;;;;9.32;8.38;;;;;;;;;;5047046;28;20029;-69
2022/07/19 05:21:30;;;;;;;9.88;8.98;;;;;;;;;;5041810;28;20477;-68
2022/07/19 05:23:56;;;;;;;9.23;8.40;;;;;;;;;;5033760;28;20048;-69
2022/07/19 05:26:21;;;;;;;8.70;7.90;;;;;;;;;;5038176;28;20035;-69
2022/07/19 05:28:47;;;;;;;9.32;8.43;;;;;;;;;;5038294;28;20044;-69
2022/07/19 05:31:13;;;;;;;10.55;8.80;;;;;;;;;;5039854;28;20198;-69
2022/07/19 05:33:38;;;;;;;8.27;7.65;;;;;;;;;;5037245;28;20033;-69
2022/07/19 05:36:04;;;;;;;8.60;7.53;;;;;;;;;;5038381;28;20109;-69
2022/07/19 05:38:34;;;;;;;8.98;8.07;;;;;;;;;;5039856;28;20397;-69
2022/07/19 05:41:00;;;;;;;10.02;7.97;;;;;;;;;;5041978;28;20071;-69
2022/07/19 05:43:26;;;;;;;8.73;7.90;;;;;;;;;;5036301;28;20037;-69
2022/07/19 05:45:51;;;;;;;8.30;7.60;;;;;;;;;;5039395;28;20055;-69
2022/07/19 05:48:17;;;;;;;10.85;8.82;;;;;;;;;;5040360;28;20029;-69
2022/07/19 05:50:42;;;;;;;8.50;7.70;;;;;;;;;;5043124;28;20032;-69
2022/07/19 05:53:08;;;;;;;14.88;8.25;;;;;;;;;;5039621;28;20083;-69
2022/07/19 05:55:34;;;;;;;8.00;7.30;;;;;;;;;;5040683;28;20066;-69
2022/07/19 05:57:59;;;;;;;8.25;7.50;;;;;;;;;;5031891;28;20064;-70
2022/07/19 06:00:25;;;;;;;7.88;7.28;;;;;;;;;;5035253;28;20492;-70
2022/07/19 06:02:51;;;;;;;8.80;7.80;;;;;;;;;;5031852;28;20041;-69
2022/07/19 06:05:17;;;;;;;8.80;7.25;;;;;;;;;;5040584;28;20890;-70
2022/07/19 06:07:42;;;;;;;8.48;7.68;;;;;;;;;;5039488;28;20045;-70
2022/07/19 06:10:08;;;;;;;7.85;7.25;;;;;;;;;;5039450;28;20610;-69
2022/07/19 06:12:34;;;;;;;11.13;7.43;;;;;;;;;;5042232;28;20056;-69
2022/07/19 06:15:00;;;;;;;8.05;7.30;;;;;;;;;;5037624;28;20068;-69
2022/07/19 06:17:25;;;;;;;7.15;6.50;;;;;;;;;;5039560;28;20033;-70
2022/07/19 06:19:51;;;;;;;10.02;7.20;;;;;;;;;;5041165;28;20029;-69
2022/07/19 06:22:16;;;;;;;8.23;7.22;;;;;;;;;;5038548;28;20234;-70
2022/07/19 06:24:42;;;;;;;11.25;7.90;;;;;;;;;;5037819;28;20411;-69
2022/07/19 06:27:08;;;;;;;8.23;7.30;;;;;;;;;;5039530;28;20098;-69
2022/07/19 06:29:33;;;;;;;8.70;7.35;;;;;;;;;;5036841;28;20462;-69
2022/07/19 06:31:59;;;;;;;8.32;7.53;;;;;;;;;;5038991;28;20083;-69
2022/07/19 06:34:24;;;;;;;9.07;7.05;;;;;;;;;;5037984;28;20029;-69
2022/07/19 06:36:50;;;;;;;7.68;6.90;;;;;;;;;;5038634;28;20035;-69
2022/07/19 06:39:16;;;;;;;9.32;7.05;;;;;;;;;;5030030;28;20083;-69
2022/07/19 06:41:41;;;;;;;10.57;6.55;;;;;;;;;;5036909;28;20061;-70
2022/07/19 06:44:17;;;;;;;10.68;6.60;;;;;;;;;;5030817;28;20037;-70
2022/07/19 06:46:42;;;;;;;7.70;6.90;;;;;;;;;;5041982;28;20116;-69
2022/07/19 06:49:08;;;;;;;7.45;6.78;;;;;;;;;;5041277;28;20132;-70
2022/07/19 06:51:33;;;;;;;10.13;6.35;;;;;;;;;;5041090;28;20032;-70
2022/07/19 06:53:59;;;;;;;8.38;6.80;;;;;;;;;;5035451;28;20144;-70
2022/07/19 06:56:25;;;;;;;12.15;6.55;;;;;;;;;;5042538;28;20033;-69
2022/07/19 06:58:50;;;;;;;8.30;6.18;;;;;;;;;;5041111;28;20032;-70
2022/07/19 07:01:17;;;;;;;7.30;6.60;;;;;;;;;;5044560;28;20047;-70
2022/07/19 07:03:43;;;;;;;8.93;6.90;;;;;;;;;;5043837;28;20541;-70
2022/07/19 07:06:09;;;;;;;7.38;6.35;;;;;;;;;;5042101;28;20048;-70
2022/07/19 07:08:34;;;;;;;11.07;6.40;;;;;;;;;;5040931;28;20094;-70
2022/07/19 07:11:00;;;;;;;8.18;6.00;;;;;;;;;;5039034;28;20481;-70
2022/07/19 07:13:26;;;;;;;7.40;6.13;;;;;;;;;;5044553;28;20033;-70
2022/07/19 07:15:51;;;;;;;8.18;6.45;;;;;;;;;;5034867;28;20041;-70
2022/07/19 07:18:18;;;;;;;8.02;6.00;;;;;;;;;;5044730;28;20036;-70
2022/07/19 07:20:44;;;;;;;7.80;6.30;;;;;;;;;;5036083;28;20030;-70
2022/07/19 07:23:09;;;;;;;7.63;5.38;;;;;;;;;;5042752;28;20377;-70
2022/07/19 07:25:35;;;;;;;8.57;6.22;;;;;;;;;;5043768;28;20244;-70
2022/07/19 07:28:00;;;;;;;11.80;6.00;;;;;;;;;;5043355;28;20040;-70
2022/07/19 07:30:26;;;;;;;10.63;5.90;;;;;;;;;;5036688;28;20068;-70
2022/07/19 07:32:52;;;;;;;7.50;5.60;;;;;;;;;;5040587;28;20037;-69
2022/07/19 07:35:17;;;;;;;6.53;5.75;;;;;;;;;;5045306;28;20033;-70
2022/07/19 07:37:43;;;;;;;6.85;6.18;;;;;;;;;;5044075;28;20037;-70
2022/07/19 07:40:09;;;;;;;5.95;5.45;;;;;;;;;;5041730;28;20037;-70
2022/07/19 07:42:35;;;;;;;9.10;5.50;;;;;;;;;;5043134;28;20033;-70
2022/07/19 07:45:00;;;;;;;6.30;5.70;;;;;;;;;;5040857;28;20155;-70
2022/07/19 07:47:26;;;;;;;6.65;5.90;;;;;;;;;;5042545;28;20112;-70
2022/07/19 07:49:52;;;;;;;6.18;5.57;;;;;;;;;;5041948;28;20033;-70
2022/07/19 07:52:18;;;;;;;7.93;5.53;;;;;;;;;;5041219;28;20064;-70
2022/07/19 07:54:44;;;;;;;5.97;5.47;;;;;;;;;;5037447;28;20036;-70
2022/07/19 07:57:09;;;;;;;6.10;5.50;;;;;;;;;;5039947;28;20082;-70
2022/07/19 07:59:35;;;;;;;6.30;5.57;;;;;;;;;;5038803;28;20032;-70
2022/07/19 08:02:01;;;;;;;6.90;5.40;;;;;;;;;;5037235;28;20041;-70
2022/07/19 08:04:27;;;;;;;10.68;5.75;;;;;;;;;;5041879;28;20090;-70
2022/07/19 08:06:53;;;;;;;7.32;5.85;;;;;;;;;;5036903;28;20115;-70
2022/07/19 08:09:18;;;;;;;6.35;5.38;;;;;;;;;;5041185;28;20032;-70
2022/07/19 08:11:44;;;;;;;8.63;5.05;;;;;;;;;;5038928;28;20037;-70
2022/07/19 08:14:09;;;;;;;5.78;5.15;;;;;;;;;;5038311;28;20095;-70
2022/07/19 08:16:35;;;;;;;6.18;5.13;;;;;;;;;;5035758;28;20037;-70
2022/07/19 08:19:01;;;;;;;5.80;5.20;;;;;;;;;;5038587;28;20056;-70
2022/07/19 08:21:26;;;;;;;5.82;5.10;;;;;;;;;;5035380;28;20037;-70
2022/07/19 08:23:53;;;;;;;6.20;5.07;;;;;;;;;;5038864;28;20461;-69
2022/07/19 08:26:20;;;;;;;6.05;5.30;;;;;;;;;;5040145;28;20041;-70
2022/07/19 08:28:47;;;;;;;5.65;5.15;;;;;;;;;;5036056;28;20196;-70
2022/07/19 08:31:14;;;;;;;5.70;5.20;;;;;;;;;;5039737;28;20476;-70
2022/07/19 08:33:41;;;;;;;6.38;5.00;;;;;;;;;;5039102;28;20041;-70
2022/07/19 08:36:07;;;;;;;8.52;5.30;;;;;;;;;;5039828;28;20072;-70
2022/07/19 08:38:33;;;;;;;5.63;5.22;;;;;;;;;;5038123;28;20048;-70
2022/07/19 08:41:01;;;;;;;6.40;5.43;;;;;;;;;;5037626;28;20184;-70
2022/07/19 08:43:26;;;;;;;7.72;5.00;;;;;;;;;;5034915;28;20033;-70
2022/07/19 08:45:53;;;;;;;5.95;4.68;;;;;;;;;;5032830;28;20453;-71
2022/07/19 08:48:20;;;;;;;5.75;4.55;;;;;;;;;;5034819;28;20440;-70
2022/07/19 08:50:47;;;;;;;5.07;4.68;;;;;;;;;;5041479;28;20043;-71
2022/07/19 08:53:15;;;;;;;5.28;4.78;;;;;;;;;;5037041;28;20453;-71
2022/07/19 08:55:41;;;;;;;5.50;4.65;;;;;;;;;;5039658;28;20110;-71
2022/07/19 08:58:06;;;;;;;4.97;4.60;;;;;;;;;;5039751;28;20045;-71
2022/07/19 09:00:33;;;;;;;9.65;4.60;;;;;;;;;;5039977;28;20037;-71
2022/07/19 09:03:01;;;;;;;5.05;4.43;;;;;;;;;;5036264;28;20041;-72
2022/07/19 09:05:27;;;;;;;;;;;;;;;;;;5035587;28;20029;-70
2022/07/19 09:08:15;;;;;;;6.25;4.47;;;;;;;;;;5036894;28;19917;-72
2022/07/19 09:13:32;;;;;;;5.47;4.90;;;;;;;;;;5036184;28;20052;-70
2022/07/19 09:15:58;;;;;;;5.30;4.80;;;;;;;;;;5032408;28;20037;-70
2022/07/19 09:18:33;;;;;;;5.10;4.80;;;;;;;;;;5038800;28;20851;-70
2022/07/19 09:21:02;;;;;;;5.10;4.72;;;;;;;;;;5040132;28;20411;-70
2022/07/19 09:23:28;;;;;;;6.65;5.20;;;;;;;;;;5034408;28;20288;-70
2022/07/19 09:26:05;;;;;;;6.10;5.07;;;;;;;;;;5035579;28;20083;-70
2022/07/19 09:28:33;;;;;;;5.47;4.50;;;;;;;;;;5036012;28;20064;-70
2022/07/19 09:31:00;;;;;;;5.15;4.75;;;;;;;;;;5030236;28;20363;-70
2022/07/19 09:33:28;;;;;;;5.05;4.65;;;;;;;;;;5038237;28;20028;-70
2022/07/19 09:35:56;;;;;;;;;;;;;;;;;;5035984;28;20500;-70
2022/07/19 09:38:29;;;;;;;5.22;4.65;;;;;;;;;;5035076;28;19970;-70
2022/07/19 09:41:06;;;;;;;6.70;5.20;;;;;;;;;;5036052;28;20076;-70
2022/07/19 09:43:58;;;;;;;11.18;5.28;;;;;;;;;;5034740;28;21190;-70
2022/07/19 09:46:31;;;;;;;5.82;5.30;;;;;;;;;;5037457;28;20072;-70
2022/07/19 09:49:13;;;;;;;5.75;5.18;;;;;;;;;;5032221;28;20055;-71
2022/07/19 09:51:45;;;;;;;7.82;4.78;;;;;;;;;;5031801;28;20094;-70
2022/07/19 09:54:17;;;;;;;5.45;5.05;;;;;;;;;;5034113;28;20467;-70
2022/07/19 09:56:44;;;;;;;5.78;5.10;;;;;;;;;;5033629;28;20033;-70
2022/07/19 09:59:10;;;;;;;5.68;5.25;;;;;;;;;;5034791;28;20048;-70
2022/07/19 10:01:37;;;;;;;5.55;4.88;;;;;;;;;;5034625;28;20062;-71
2022/07/19 10:04:16;;;;;;;5.00;4.60;;;;;;;;;;5039814;28;20041;-71
2022/07/19 10:06:42;;;;;;;;;;;;;;;;;;5030825;28;20037;-71
2022/07/19 10:09:11;;;;;;;5.63;4.60;;;;;;;;;;5036318;28;19928;-71
2022/07/19 10:11:37;;;;;;;5.18;4.68;;;;;;;;;;5037233;28;20028;-70
2022/07/19 10:14:03;;;;;;;5.20;4.70;;;;;;;;;;5039728;28;20041;-70
2022/07/19 10:16:45;;;;;;;5.45;4.95;;;;;;;;;;5034810;28;20039;-71
2022/07/19 10:19:28;;;;;;;6.35;4.32;;;;;;;;;;5032701;28;20052;-71
2022/07/19 10:21:54;;;;;;;6.22;4.70;;;;;;;;;;5036227;28;20048;-71
2022/07/19 10:24:49;;;;;;;5.70;5.20;;;;;;;;;;5038249;28;20037;-71
2022/07/19 10:27:17;;;;;;;5.72;5.18;;;;;;;;;;5035139;28;20404;-71
2022/07/19 10:29:43;;;;;;;5.40;4.55;;;;;;;;;;5034918;28;20427;-71
2022/07/19 10:32:11;;;;;;;4.85;4.45;;;;;;;;;;5042225;28;20095;-71
2022/07/19 10:34:37;;;;;;;5.90;4.80;;;;;;;;;;5041203;28;20457;-71
2022/07/19 10:37:03;;;;;;;7.28;5.40;;;;;;;;;;5041311;28;20488;-71
2022/07/19 10:39:38;;;;;;;7.93;4.47;;;;;;;;;;5038344;28;20079;-71
2022/07/19 10:42:17;;;;;;;6.25;4.80;;;;;;;;;;5042072;28;20064;-71
2022/07/19 10:44:55;;;;;;;5.10;4.60;;;;;;;;;;5042405;28;20054;-71
2022/07/19 10:47:21;;;;;;;8.38;4.90;;;;;;;;;;5040031;28;20072;-71
2022/07/19 10:49:48;;;;;;;5.40;5.10;;;;;;;;;;5042078;28;20522;-72
2022/07/19 10:52:38;;;;;;;4.85;4.55;;;;;;;;;;5040778;28;20041;-71
2022/07/19 10:55:28;;;;;;;5.70;5.20;;;;;;;;;;5024257;28;20551;-71
2022/07/19 10:58:06;;;;;;;5.78;5.07;;;;;;;;;;5039159;28;20043;-69
2022/07/19 11:00:40;;;;;;;;;;;;;;;;;;5042479;28;20034;-70
2022/07/19 11:03:25;;;;;;;5.60;5.03;;;;;;;;;;5037318;28;19923;-71
2022/07/19 11:05:56;;;;;;;6.57;5.47;;;;;;;;;;5036681;28;20045;-70
2022/07/19 11:08:36;;;;;;;5.45;4.90;;;;;;;;;;5041455;28;20141;-72
2022/07/19 11:11:16;;;;;;;5.97;4.95;;;;;;;;;;5037739;28;20572;-72
2022/07/19 11:13:48;;;;;;;5.32;4.63;;;;;;;;;;5038227;28;20037;-72
2022/07/19 11:16:14;;;;;;;5.80;5.00;;;;;;;;;;5034218;28;20045;-71
2022/07/19 11:18:40;;;;;;;6.60;4.50;;;;;;;;;;5041283;28;20041;-70
2022/07/19 11:21:07;;;;;;;5.70;5.20;;;;;;;;;;5037632;28;20094;-72
2022/07/19 11:23:39;;;;;;;4.88;4.40;;;;;;;;;;5040338;28;20366;-70
2022/07/19 11:26:17;;;;;;;5.28;4.88;;;;;;;;;;5035049;28;20040;-71
2022/07/19 11:28:44;;;;;;;5.85;4.93;;;;;;;;;;5033296;28;20036;-71
2022/07/19 11:31:21;;;;;;;5.75;5.03;;;;;;;;;;5040724;28;20040;-71
2022/07/19 11:33:50;;;;;;;7.05;5.25;;;;;;;;;;5033026;28;20108;-70
2022/07/19 11:36:17;;;;;;;9.73;4.80;;;;;;;;;;5039323;28;21036;-70
2022/07/19 11:38:47;;;;;;;6.18;5.60;;;;;;;;;;5030208;28;20034;-71
2022/07/19 11:41:18;;;;;;;7.82;5.25;;;;;;;;;;5039938;28;20056;-71
2022/07/19 11:43:51;;;;;;;6.88;5.28;;;;;;;;;;5035500;28;20120;-70
2022/07/19 11:46:17;;;;;;;5.80;5.22;;;;;;;;;;5035406;28;20083;-71
2022/07/19 11:48:43;;;;;;;6.00;5.50;;;;;;;;;;5038307;28;20032;-70
2022/07/19 11:51:11;;;;;;;6.28;5.68;;;;;;;;;;5038707;28;20449;-71
2022/07/19 11:53:39;;;;;;;6.30;5.50;;;;;;;;;;5030922;28;20132;-71
2022/07/19 11:56:06;;;;;;;8.07;5.68;;;;;;;;;;5035098;28;20041;-70
2022/07/19 11:58:33;;;;;;;8.10;5.72;;;;;;;;;;5041350;28;20116;-70
2022/07/19 12:01:05;;;;;;;10.40;5.70;;;;;;;;;;5036414;28;20054;-70
2022/07/19 12:03:32;;;;;;;7.85;5.75;;;;;;;;;;5036297;28;20029;-71
2022/07/19 12:06:01;;;;;;;8.10;5.38;;;;;;;;;;5033601;28;20064;-71
2022/07/19 12:08:44;;;;;;;6.60;5.93;;;;;;;;;;5040349;28;20036;-71
2022/07/19 12:11:24;;;;;;;5.85;5.40;;;;;;;;;;5037058;28;20040;-71
2022/07/19 12:13:51;;;;;;;5.72;5.20;;;;;;;;;;5032429;28;20503;-70
2022/07/19 12:16:18;;;;;;;6.85;5.60;;;;;;;;;;5039848;28;20033;-71
2022/07/19 12:18:51;;;;;;;6.47;5.68;;;;;;;;;;5040734;28;20033;-71
2022/07/19 12:21:20;;;;;;;8.45;5.05;;;;;;;;;;5040034;28;20791;-71
2022/07/19 12:24:07;;;;;;;5.85;5.40;;;;;;;;;;5033716;28;20068;-71
2022/07/19 12:26:33;;;;;;;7.47;5.60;;;;;;;;;;5040682;28;20469;-71
2022/07/19 12:28:59;;;;;;;5.93;5.43;;;;;;;;;;5034727;28;20051;-70
2022/07/19 12:31:24;;;;;;;5.65;5.15;;;;;;;;;;5038621;28;20446;-72
2022/07/19 12:34:00;;;;;;;8.23;5.40;;;;;;;;;;5035628;28;20033;-71
2022/07/19 12:36:33;;;;;;;7.22;5.18;;;;;;;;;;5039680;28;20116;-71
2022/07/19 12:38:59;;;;;;;7.97;5.82;;;;;;;;;;5033396;28;20029;-71
2022/07/19 12:41:24;;;;;;;7.43;5.40;;;;;;;;;;5036751;28;20043;-71
2022/07/19 12:43:50;;;;;;;6.20;5.63;;;;;;;;;;5035797;28;20377;-71
2022/07/19 12:46:15;;;;;;;6.70;5.18;;;;;;;;;;5037602;28;20051;-71
2022/07/19 12:48:41;;;;;;;10.82;5.70;;;;;;;;;;5038179;28;20071;-72
2022/07/19 12:51:07;;;;;;;6.97;5.32;;;;;;;;;;5042110;28;20531;-70
2022/07/19 12:53:32;;;;;;;6.65;5.10;;;;;;;;;;5031188;28;20090;-70
2022/07/19 12:55:58;;;;;;;5.95;5.35;;;;;;;;;;5035469;28;20120;-70
2022/07/19 13:01:12;;;;;;;5.90;5.40;;;;;;;;;;5001944;28;20059;-70
2022/07/19 13:03:39;;;;;;;6.63;4.90;;;;;;;;;;5036144;28;20096;-70
2022/07/19 13:06:05;;;;;;;6.80;4.90;;;;;;;;;;5038253;28;20545;-71
2022/07/19 13:08:31;;;;;;;7.07;5.03;;;;;;;;;;5040837;28;20039;-70
2022/07/19 13:10:58;;;;;;;8.05;5.05;;;;;;;;;;5033698;28;20034;-71
2022/07/19 13:13:25;;;;;;;6.78;5.07;;;;;;;;;;5039703;28;20046;-70
2022/07/19 13:15:51;;;;;;;5.50;5.00;;;;;;;;;;5031049;28;20041;-70
2022/07/19 13:18:17;;;;;;;5.53;5.03;;;;;;;;;;5036701;28;20033;-71
2022/07/19 13:20:43;;;;;;;5.95;5.35;;;;;;;;;;5037228;28;20500;-71
2022/07/19 13:23:09;;;;;;;7.32;5.57;;;;;;;;;;5035739;28;20041;-71
2022/07/19 13:25:35;;;;;;;6.13;5.53;;;;;;;;;;5037190;28;20036;-71
2022/07/19 13:28:01;;;;;;;6.72;5.55;;;;;;;;;;5037106;28;20033;-71
2022/07/19 13:30:27;;;;;;;5.90;5.40;;;;;;;;;;5040600;28;20358;-71
2022/07/19 13:32:53;;;;;;;6.00;5.40;;;;;;;;;;5034762;28;20091;-71
2022/07/19 13:35:18;;;;;;;8.38;5.72;;;;;;;;;;5034350;28;20042;-73
2022/07/19 13:37:44;;;;;;;7.97;5.30;;;;;;;;;;5036151;28;20523;-71
2022/07/19 13:40:10;;;;;;;10.73;5.50;;;;;;;;;;5033315;28;20131;-72
2022/07/19 13:42:36;;;;;;;5.82;5.32;;;;;;;;;;5035870;28;20079;-71
2022/07/19 13:45:01;;;;;;;6.95;5.70;;;;;;;;;;5039521;28;20068;-71
2022/07/19 13:47:27;;;;;;;6.53;5.47;;;;;;;;;;5033457;28;20602;-71
2022/07/19 13:49:53;;;;;;;5.90;5.38;;;;;;;;;;5037713;28;20438;-72
2022/07/19 13:52:18;;;;;;;8.88;5.50;;;;;;;;;;5034031;28;20037;-71
2022/07/19 13:54:44;;;;;;;5.68;5.13;;;;;;;;;;5038294;28;20123;-71
2022/07/19 13:57:09;;;;;;;7.03;5.00;;;;;;;;;;5034453;28;20519;-71
2022/07/19 13:59:35;;;;;;;8.35;5.68;;;;;;;;;;5038438;28;20451;-70
2022/07/19 14:02:02;;;;;;;5.95;5.30;;;;;;;;;;5035473;28;20390;-71
2022/07/19 14:04:27;;;;;;;6.13;5.22;;;;;;;;;;5036762;28;20133;-71
2022/07/19 14:06:53;;;;;;;7.53;5.30;;;;;;;;;;5035466;28;20571;-71
2022/07/19 14:09:19;;;;;;;8.00;5.50;;;;;;;;;;5033173;28;20310;-71
2022/07/19 14:11:44;;;;;;;5.68;5.18;;;;;;;;;;5033161;28;20045;-71
2022/07/19 14:14:10;;;;;;;11.20;5.30;;;;;;;;;;5033432;28;20123;-71
2022/07/19 14:16:36;;;;;;;6.05;4.90;;;;;;;;;;5038067;28;20032;-71
2022/07/19 14:19:02;;;;;;;7.15;5.60;;;;;;;;;;5036678;28;20056;-71
2022/07/19 14:21:33;;;;;;;7.10;5.07;;;;;;;;;;5037681;28;20040;-71
2022/07/19 14:23:59;;;;;;;7.90;5.10;;;;;;;;;;5039637;28;20040;-71
2022/07/19 14:26:25;;;;;;;9.13;5.40;;;;;;;;;;5036345;28;20044;-71
2022/07/19 14:28:51;;;;;;;5.65;5.15;;;;;;;;;;5037255;28;20041;-71
2022/07/19 14:31:16;;;;;;;6.53;5.40;;;;;;;;;;5037454;28;20401;-71
2022/07/19 14:33:42;;;;;;;10.23;5.47;;;;;;;;;;5034280;28;20076;-71
2022/07/19 14:36:07;;;;;;;5.55;5.07;;;;;;;;;;5039668;28;20437;-70
2022/07/19 14:38:33;;;;;;;7.05;5.47;;;;;;;;;;5040018;28;20037;-71
2022/07/19 14:40:59;;;;;;;7.28;5.30;;;;;;;;;;5040203;28;20120;-71
2022/07/19 14:43:24;;;;;;;6.22;5.10;;;;;;;;;;5036717;28;20159;-70
2022/07/19 14:45:50;;;;;;;6.82;5.30;;;;;;;;;;5040077;28;20132;-70
2022/07/19 14:48:16;;;;;;;5.88;5.15;;;;;;;;;;5034997;28;20490;-70
2022/07/19 14:50:41;;;;;;;6.03;5.50;;;;;;;;;;5040655;28;20381;-70